Time;durP1;ratioP1;P1;durP2;ratioP2;P2;SDS_P1;SDS_P2;PMS_P1;PMS_P2;Temp;Humidity;BMP_temperature;BMP_pressure;BME280_temperature;BME280_humidity;BME280_pressure;Samples;Min_cycle;Max_cycle;Signal;HPM_P1;HPM_P2
2021/06/22 00:01:04;;;;;;;7.90;2.53;;;;;;;;;;10527680;28;20227;-68
2021/06/22 00:06:08;;;;;;;6.47;2.30;;;;;;;;;;10526553;28;20199;-71
2021/06/22 00:11:10;;;;;;;8.47;2.87;;;;;;;;;;10524058;28;20659;-72
2021/06/22 00:16:14;;;;;;;7.37;2.80;;;;;;;;;;10528256;28;20223;-70
2021/06/22 00:21:18;;;;;;;7.83;2.73;;;;;;;;;;10523256;28;20323;-72
2021/06/22 00:26:21;;;;;;;6.70;2.47;;;;;;;;;;10528551;28;20249;-72
2021/06/22 00:31:24;;;;;;;6.37;2.70;;;;;;;;;;10523180;28;20208;-71
2021/06/22 00:36:27;;;;;;;5.63;2.50;;;;;;;;;;10528746;28;20577;-72
2021/06/22 00:41:30;;;;;;;6.90;2.73;;;;;;;;;;10524321;28;20568;-72
2021/06/22 00:46:32;;;;;;;8.13;2.60;;;;;;;;;;10527413;28;20222;-72
2021/06/22 00:51:36;;;;;;;3.27;1.37;;;;;;;;;;10525165;28;20227;-69
2021/06/22 00:56:39;;;;;;;5.83;1.80;;;;;;;;;;10528276;28;20196;-70
2021/06/22 01:01:41;;;;;;;5.37;2.40;;;;;;;;;;10526017;28;20219;-69
2021/06/22 01:06:46;;;;;;;7.57;2.53;;;;;;;;;;10518510;28;20204;-71
2021/06/22 01:11:48;;;;;;;6.53;2.70;;;;;;;;;;10526533;28;20231;-71
2021/06/22 01:16:51;;;;;;;8.00;2.67;;;;;;;;;;10526071;28;20748;-71
2021/06/22 01:21:54;;;;;;;5.17;2.40;;;;;;;;;;10531591;28;20219;-71
2021/06/22 01:26:58;;;;;;;5.40;2.07;;;;;;;;;;10532047;28;20249;-71
2021/06/22 01:32:01;;;;;;;4.77;1.80;;;;;;;;;;10535635;28;20231;-71
2021/06/22 01:37:08;;;;;;;3.87;2.03;;;;;;;;;;10533293;28;20198;-70
2021/06/22 01:42:10;;;;;;;3.43;1.77;;;;;;;;;;10532310;28;20218;-71
2021/06/22 01:47:13;;;;;;;4.33;1.90;;;;;;;;;;10533315;28;20199;-71
2021/06/22 01:52:17;;;;;;;4.13;1.90;;;;;;;;;;10529568;28;20199;-72
2021/06/22 01:57:19;;;;;;;3.50;1.70;;;;;;;;;;10532440;28;20738;-72
2021/06/22 02:02:22;;;;;;;4.07;2.00;;;;;;;;;;10530858;28;20573;-73
2021/06/22 02:07:26;;;;;;;4.40;1.80;;;;;;;;;;10534122;28;20219;-71
2021/06/22 02:12:29;;;;;;;4.13;1.80;;;;;;;;;;10528470;28;20238;-71
2021/06/22 02:17:31;;;;;;;5.07;1.80;;;;;;;;;;10533844;28;20250;-73
2021/06/22 02:22:36;;;;;;;5.40;1.90;;;;;;;;;;10528338;28;20321;-71
2021/06/22 02:27:38;;;;;;;4.13;1.90;;;;;;;;;;10534215;28;20208;-73
2021/06/22 02:32:41;;;;;;;3.67;2.03;;;;;;;;;;10533132;28;20195;-72
2021/06/22 02:37:45;;;;;;;7.77;1.87;;;;;;;;;;10533071;28;20212;-69
2021/06/22 02:42:48;;;;;;;5.50;1.90;;;;;;;;;;10526821;28;20187;-72
2021/06/22 02:47:51;;;;;;;3.70;1.63;;;;;;;;;;10532269;28;20700;-71
2021/06/22 02:52:55;;;;;;;5.13;2.00;;;;;;;;;;10532559;28;20211;-71
2021/06/22 02:57:57;;;;;;;6.63;2.10;;;;;;;;;;10528355;28;20575;-73
2021/06/22 03:03:00;;;;;;;4.77;1.77;;;;;;;;;;10531064;28;20263;-73
2021/06/22 03:08:04;;;;;;;3.97;2.03;;;;;;;;;;10531880;28;20568;-74
2021/06/22 03:13:07;;;;;;;4.97;2.10;;;;;;;;;;10530902;28;20192;-74
2021/06/22 03:18:09;;;;;;;3.00;1.60;;;;;;;;;;10529882;28;20220;-73
2021/06/22 03:23:13;;;;;;;4.17;1.83;;;;;;;;;;10530583;28;20616;-71
2021/06/22 03:28:16;;;;;;;4.97;1.70;;;;;;;;;;10529601;28;20240;-71
2021/06/22 03:33:19;;;;;;;4.07;1.70;;;;;;;;;;10531430;28;20246;-74
2021/06/22 03:38:22;;;;;;;3.83;1.70;;;;;;;;;;10528175;28;21033;-75
2021/06/22 03:43:25;;;;;;;5.70;1.80;;;;;;;;;;10528328;28;20199;-73
2021/06/22 03:48:28;;;;;;;3.73;1.87;;;;;;;;;;10528049;28;20317;-72
2021/06/22 03:53:31;;;;;;;6.17;2.00;;;;;;;;;;10527739;28;20223;-71
2021/06/22 03:58:34;;;;;;;4.90;1.90;;;;;;;;;;10529985;28;20260;-72
2021/06/22 04:03:37;;;;;;;4.60;1.87;;;;;;;;;;10530582;28;20202;-72
2021/06/22 04:08:41;;;;;;;5.20;2.00;;;;;;;;;;10521998;28;20242;-71
2021/06/22 04:13:44;;;;;;;4.30;1.80;;;;;;;;;;10529872;28;20208;-70
2021/06/22 04:19:07;;;;;;;3.73;1.63;;;;;;;;;;10526420;28;20238;-74
2021/06/22 04:24:30;;;;;;;3.90;1.77;;;;;;;;;;10531795;28;20195;-73
2021/06/22 04:29:40;;;;;;;4.87;2.10;;;;;;;;;;10528518;28;20208;-75
2021/06/22 04:34:42;;;;;;;4.77;1.80;;;;;;;;;;10530115;28;20673;-75
2021/06/22 04:39:46;;;;;;;4.37;1.90;;;;;;;;;;10527602;28;20251;-76
2021/06/22 04:44:49;;;;;;;6.30;2.00;;;;;;;;;;10527716;28;20235;-73
2021/06/22 04:49:51;;;;;;;3.90;1.83;;;;;;;;;;10534016;28;20219;-73
2021/06/22 04:54:55;;;;;;;5.57;2.17;;;;;;;;;;10526691;28;20698;-71
2021/06/22 04:59:58;;;;;;;5.40;1.87;;;;;;;;;;10531948;28;20215;-70
2021/06/22 05:05:03;;;;;;;4.30;2.03;;;;;;;;;;10539848;28;20190;-71
2021/06/22 05:10:08;;;;;;;3.90;2.00;;;;;;;;;;10551818;28;20273;-71
2021/06/22 05:15:11;;;;;;;5.23;2.30;;;;;;;;;;10532712;28;20230;-71
2021/06/22 05:20:14;;;;;;;7.43;2.37;;;;;;;;;;10527411;28;20233;-70
2021/06/22 05:25:17;;;;;;;7.70;2.50;;;;;;;;;;10537257;28;20267;-69
2021/06/22 05:30:21;;;;;;;7.10;2.73;;;;;;;;;;10533286;28;20212;-70
2021/06/22 05:35:23;;;;;;;6.73;2.80;;;;;;;;;;10534859;28;20191;-70
2021/06/22 05:40:28;;;;;;;7.50;2.87;;;;;;;;;;10532390;28;20226;-70
2021/06/22 05:45:30;;;;;;;6.20;2.70;;;;;;;;;;10533295;28;20230;-70
2021/06/22 05:50:33;;;;;;;10.13;2.80;;;;;;;;;;10535690;28;20215;-70
2021/06/22 05:55:37;;;;;;;6.37;2.80;;;;;;;;;;10532815;28;20232;-70
2021/06/22 06:00:40;;;;;;;7.57;2.70;;;;;;;;;;10527600;28;20254;-69
2021/06/22 06:05:42;;;;;;;7.57;2.70;;;;;;;;;;10532776;28;20196;-69
2021/06/22 06:10:46;;;;;;;6.23;2.40;;;;;;;;;;10530924;28;20223;-69
2021/06/22 06:15:48;;;;;;;7.37;2.30;;;;;;;;;;10534817;28;20713;-67
2021/06/22 06:20:51;;;;;;;6.03;2.53;;;;;;;;;;10536857;28;20290;-69
2021/06/22 06:25:55;;;;;;;3.70;1.87;;;;;;;;;;10542644;28;20249;-67
2021/06/22 06:30:58;;;;;;;5.70;1.93;;;;;;;;;;10542786;28;20295;-69
2021/06/22 06:36:00;;;;;;;6.70;1.80;;;;;;;;;;10520969;28;20200;-68
2021/06/22 06:41:04;;;;;;;5.37;2.10;;;;;;;;;;10521081;28;20218;-68
2021/06/22 06:46:07;;;;;;;4.60;2.07;;;;;;;;;;10525634;28;20227;-69
2021/06/22 06:51:10;;;;;;;5.73;2.30;;;;;;;;;;10530108;28;20554;-69
2021/06/22 06:56:14;;;;;;;4.30;1.80;;;;;;;;;;10525093;28;20199;-69
2021/06/22 07:01:16;;;;;;;7.20;2.80;;;;;;;;;;10524188;28;20251;-69
2021/06/22 07:06:19;;;;;;;4.97;2.10;;;;;;;;;;10545258;28;20187;-70
2021/06/22 07:11:23;;;;;;;4.67;2.00;;;;;;;;;;10529793;28;20210;-68
2021/06/22 07:16:25;;;;;;;4.35;2.00;;;;;;;;;;10524169;28;20635;-70
2021/06/22 07:21:28;;;;;;;6.28;2.10;;;;;;;;;;10530051;28;20215;-70
2021/06/22 07:26:32;;;;;;;5.70;2.15;;;;;;;;;;10528404;28;20563;-69
2021/06/22 07:31:35;;;;;;;6.70;1.80;;;;;;;;;;10536019;28;20208;-70
2021/06/22 07:36:37;;;;;;;4.40;1.83;;;;;;;;;;10524264;28;20194;-70
2021/06/22 07:41:41;;;;;;;3.90;2.10;;;;;;;;;;10526814;28;20267;-70
2021/06/22 07:46:44;;;;;;;4.97;2.00;;;;;;;;;;10528202;28;20231;-70
2021/06/22 07:51:47;;;;;;;7.00;2.00;;;;;;;;;;10518452;28;20211;-70
2021/06/22 07:56:50;;;;;;;6.60;1.80;;;;;;;;;;10528999;28;20227;-69
2021/06/22 08:01:53;;;;;;;5.90;1.90;;;;;;;;;;10530440;28;20322;-69
2021/06/22 08:06:55;;;;;;;5.75;2.60;;;;;;;;;;10526716;28;20505;-69
2021/06/22 08:12:00;;;;;;;5.30;2.17;;;;;;;;;;10527488;28;20687;-70
2021/06/22 08:17:03;;;;;;;5.93;1.88;;;;;;;;;;10522371;28;20203;-70
2021/06/22 08:22:05;;;;;;;5.32;2.20;;;;;;;;;;10519281;28;20663;-70
2021/06/22 08:27:09;;;;;;;4.93;1.98;;;;;;;;;;10517299;28;20681;-68
2021/06/22 08:32:11;;;;;;;5.78;2.22;;;;;;;;;;10537009;28;20223;-70
2021/06/22 08:37:14;;;;;;;4.65;1.90;;;;;;;;;;10533024;28;20195;-71
2021/06/22 08:42:18;;;;;;;5.82;1.83;;;;;;;;;;10537340;28;20245;-71
2021/06/22 08:47:21;;;;;;;4.78;2.03;;;;;;;;;;10537989;28;20191;-71
2021/06/22 08:52:25;;;;;;;3.72;1.77;;;;;;;;;;10539609;28;20253;-70
2021/06/22 08:57:29;;;;;;;5.57;2.10;;;;;;;;;;10537546;28;20744;-70
2021/06/22 09:02:34;;;;;;;5.82;2.17;;;;;;;;;;10539099;28;20246;-70
2021/06/22 09:07:44;;;;;;;2.90;1.80;;;;;;;;;;10540982;28;20249;-70
2021/06/22 09:12:48;;;;;;;5.45;2.00;;;;;;;;;;10532655;28;20195;-70
2021/06/22 09:17:51;;;;;;;6.47;1.92;;;;;;;;;;10537303;28;20254;-71
2021/06/22 09:23:02;;;;;;;4.82;2.47;;;;;;;;;;10534329;28;20271;-71
2021/06/22 09:28:06;;;;;;;3.92;2.20;;;;;;;;;;10537283;28;20560;-71
2021/06/22 09:33:14;;;;;;;4.80;2.40;;;;;;;;;;10536477;28;20200;-69
2021/06/22 09:38:17;;;;;;;4.72;2.15;;;;;;;;;;10522070;28;20246;-69
2021/06/22 09:43:21;;;;;;;6.50;2.38;;;;;;;;;;10526417;28;20297;-67
2021/06/22 09:48:26;;;;;;;5.57;1.90;;;;;;;;;;10531424;28;20230;-69
2021/06/22 09:53:29;;;;;;;3.88;2.17;;;;;;;;;;10532545;28;20223;-70
2021/06/22 09:58:39;;;;;;;3.95;1.90;;;;;;;;;;10523973;28;20321;-70
2021/06/22 10:03:41;;;;;;;5.35;2.25;;;;;;;;;;10532681;28;20759;-70
2021/06/22 10:08:51;;;;;;;5.15;2.10;;;;;;;;;;10525975;28;20216;-70
2021/06/22 10:13:55;;;;;;;4.47;2.03;;;;;;;;;;10532265;28;20274;-71
2021/06/22 10:18:57;;;;;;;3.53;2.00;;;;;;;;;;10532131;28;20253;-70
2021/06/22 10:24:00;;;;;;;4.57;2.03;;;;;;;;;;10529501;28;20610;-70
2021/06/22 10:29:04;;;;;;;5.03;2.10;;;;;;;;;;10529966;28;20297;-70
2021/06/22 10:34:07;;;;;;;3.80;2.20;;;;;;;;;;10527821;28;20242;-70
2021/06/22 10:39:13;;;;;;;4.93;2.00;;;;;;;;;;10526636;28;20299;-70
2021/06/22 10:44:30;;;;;;;3.40;1.73;;;;;;;;;;10530946;28;20624;-70
2021/06/22 10:49:35;;;;;;;3.85;2.45;;;;;;;;;;10514547;28;20219;-70
2021/06/22 10:54:50;;;;;;;5.47;2.00;;;;;;;;;;10525496;28;20631;-70
2021/06/22 10:59:59;;;;;;;5.32;2.70;;;;;;;;;;10523526;28;20229;-70
2021/06/22 11:05:16;;;;;;;4.22;2.17;;;;;;;;;;10522006;28;20189;-72
2021/06/22 11:10:18;;;;;;;3.53;1.90;;;;;;;;;;10530995;28;20300;-70
2021/06/22 11:15:22;;;;;;;4.57;2.30;;;;;;;;;;10527164;28;20203;-71
2021/06/22 11:20:30;;;;;;;4.63;2.15;;;;;;;;;;10538702;28;20219;-71
2021/06/22 11:25:48;;;;;;;3.25;1.73;;;;;;;;;;10528882;28;20244;-72
2021/06/22 11:30:55;;;;;;;3.28;1.90;;;;;;;;;;10523162;28;20289;-72
2021/06/22 11:36:12;;;;;;;2.85;1.90;;;;;;;;;;10530051;28;20500;-73
2021/06/22 11:41:17;;;;;;;4.60;1.92;;;;;;;;;;10523789;28;20265;-73
2021/06/22 11:46:29;;;;;;;4.30;2.17;;;;;;;;;;10530725;28;20200;-71
2021/06/22 11:51:50;;;;;;;4.47;2.53;;;;;;;;;;10525819;28;20306;-71
2021/06/22 11:56:54;;;;;;;4.00;2.22;;;;;;;;;;10526828;28;20195;-70
2021/06/22 12:01:57;;;;;;;4.63;2.20;;;;;;;;;;10527082;28;20292;-71
2021/06/22 12:07:00;;;;;;;3.80;2.10;;;;;;;;;;10543538;28;20241;-72
2021/06/22 12:12:04;;;;;;;4.15;2.38;;;;;;;;;;10528796;28;20207;-71
2021/06/22 12:17:13;;;;;;;4.78;2.40;;;;;;;;;;10540116;28;20523;-71
2021/06/22 12:22:16;;;;;;;3.67;2.30;;;;;;;;;;10535190;28;20207;-71
2021/06/22 12:27:20;;;;;;;5.97;2.60;;;;;;;;;;10538392;28;20215;-72
2021/06/22 12:32:26;;;;;;;5.35;2.42;;;;;;;;;;10533340;28;20276;-71
2021/06/22 12:37:28;;;;;;;4.68;2.45;;;;;;;;;;10525986;28;20220;-71
2021/06/22 12:42:35;;;;;;;6.22;2.28;;;;;;;;;;10525611;28;20406;-70
2021/06/22 12:47:38;;;;;;;4.05;2.40;;;;;;;;;;10522462;28;20322;-71
2021/06/22 12:52:40;;;;;;;4.50;2.72;;;;;;;;;;10522289;28;20189;-71
2021/06/22 12:57:52;;;;;;;4.57;2.25;;;;;;;;;;10526849;28;20273;-71
2021/06/22 13:03:05;;;;;;;5.28;1.95;;;;;;;;;;10509987;28;20243;-70
2021/06/22 13:08:08;;;;;;;4.57;2.00;;;;;;;;;;10515690;28;20353;-70
2021/06/22 13:13:12;;;;;;;3.40;2.15;;;;;;;;;;10515326;28;20216;-70
2021/06/22 13:18:14;;;;;;;4.38;2.33;;;;;;;;;;10530906;28;20219;-70
2021/06/22 13:23:17;;;;;;;3.15;2.05;;;;;;;;;;10530137;28;20310;-71
2021/06/22 13:28:21;;;;;;;4.88;2.13;;;;;;;;;;10535778;28;20219;-71
2021/06/22 13:33:28;;;;;;;3.30;1.90;;;;;;;;;;10531543;28;20256;-70
2021/06/22 13:38:35;;;;;;;4.70;2.10;;;;;;;;;;10525730;28;20300;-71
2021/06/22 13:43:44;;;;;;;8.27;2.65;;;;;;;;;;10531993;28;20284;-71
2021/06/22 13:48:48;;;;;;;4.13;2.15;;;;;;;;;;10530635;28;20580;-70
2021/06/22 13:53:51;;;;;;;5.63;2.50;;;;;;;;;;10529367;28;20274;-67
2021/06/22 13:58:55;;;;;;;4.38;2.42;;;;;;;;;;10525905;28;20825;-69
2021/06/22 14:03:58;;;;;;;4.70;2.30;;;;;;;;;;10531324;28;20353;-71
2021/06/22 14:09:01;;;;;;;6.45;2.90;;;;;;;;;;10536753;28;20310;-71
2021/06/22 14:14:05;;;;;;;6.15;2.97;;;;;;;;;;10530441;28;20180;-71
2021/06/22 14:19:07;;;;;;;6.95;2.80;;;;;;;;;;10539499;28;20246;-71
2021/06/22 14:24:10;;;;;;;6.82;2.80;;;;;;;;;;10531173;28;20208;-71
2021/06/22 14:29:14;;;;;;;5.00;2.58;;;;;;;;;;10528421;28;20215;-69
2021/06/22 14:34:18;;;;;;;3.88;2.50;;;;;;;;;;10524962;28;20219;-70
2021/06/22 14:39:21;;;;;;;4.90;2.63;;;;;;;;;;10522676;28;20223;-70
2021/06/22 14:44:24;;;;;;;5.47;2.60;;;;;;;;;;10530961;28;20659;-70
2021/06/22 14:49:27;;;;;;;5.03;2.55;;;;;;;;;;10536264;28;20215;-71
2021/06/22 14:54:30;;;;;;;5.10;2.80;;;;;;;;;;10534293;28;20287;-71
2021/06/22 14:59:37;;;;;;;5.63;3.28;;;;;;;;;;10528759;28;20537;-69
2021/06/22 15:04:40;;;;;;;10.27;3.80;;;;;;;;;;10533004;28;20243;-70
2021/06/22 15:09:43;;;;;;;7.22;3.90;;;;;;;;;;10530480;28;20307;-70
2021/06/22 15:14:47;;;;;;;9.63;4.03;;;;;;;;;;10539876;28;20223;-69
2021/06/22 15:19:51;;;;;;;7.95;3.30;;;;;;;;;;10534655;28;20517;-71
2021/06/22 15:24:54;;;;;;;6.80;3.80;;;;;;;;;;10530210;28;20296;-70
2021/06/22 15:29:59;;;;;;;9.95;4.70;;;;;;;;;;10534050;28;20251;-71
2021/06/22 15:35:01;;;;;;;6.70;4.18;;;;;;;;;;10529607;28;20188;-70
2021/06/22 15:40:05;;;;;;;7.47;3.72;;;;;;;;;;10526308;28;20211;-70
2021/06/22 15:45:10;;;;;;;7.10;3.22;;;;;;;;;;10526048;28;20222;-71
2021/06/22 15:50:14;;;;;;;8.82;4.00;;;;;;;;;;10516597;28;20246;-71
2021/06/22 15:55:21;;;;;;;7.75;3.30;;;;;;;;;;10531004;28;20198;-71
2021/06/22 16:00:27;;;;;;;6.53;3.50;;;;;;;;;;10525736;28;20283;-71
2021/06/22 16:05:33;;;;;;;9.48;3.50;;;;;;;;;;10528428;28;20199;-70
2021/06/22 16:10:37;;;;;;;5.78;3.55;;;;;;;;;;10525975;28;20249;-70
2021/06/22 16:15:45;;;;;;;9.10;3.80;;;;;;;;;;10524747;28;20196;-70
2021/06/22 16:20:48;;;;;;;7.15;3.70;;;;;;;;;;10525761;28;20295;-70
2021/06/22 16:25:50;;;;;;;7.47;3.90;;;;;;;;;;10524203;28;20283;-70
2021/06/22 16:30:54;;;;;;;6.70;3.90;;;;;;;;;;10526535;28;20683;-71
2021/06/22 16:35:57;;;;;;;9.45;4.30;;;;;;;;;;10526298;28;20291;-71
2021/06/22 16:40:59;;;;;;;9.13;5.60;;;;;;;;;;10535452;28;20311;-71
2021/06/22 16:46:04;;;;;;;5.78;3.38;;;;;;;;;;10528096;28;20203;-70
2021/06/22 16:51:06;;;;;;;8.98;3.92;;;;;;;;;;10526822;28;20203;-71
2021/06/22 16:56:09;;;;;;;7.03;3.95;;;;;;;;;;10534810;28;20636;-70
2021/06/22 17:01:14;;;;;;;7.97;4.40;;;;;;;;;;10533127;28;20211;-70
2021/06/22 17:06:16;;;;;;;8.60;6.20;;;;;;;;;;10523830;28;20212;-70
2021/06/22 17:11:19;;;;;;;9.20;6.90;;;;;;;;;;10531910;28;20250;-70
2021/06/22 17:16:22;;;;;;;12.00;10.32;;;;;;;;;;10531294;28;20297;-69
2021/06/22 17:21:25;;;;;;;12.50;9.65;;;;;;;;;;10533270;28;20220;-70
2021/06/22 17:26:28;;;;;;;11.93;10.25;;;;;;;;;;10534714;28;20219;-70
2021/06/22 17:31:32;;;;;;;11.32;9.07;;;;;;;;;;10535229;28;20215;-70
2021/06/22 17:36:36;;;;;;;9.80;8.20;;;;;;;;;;10535836;28;20206;-70
2021/06/22 17:41:39;;;;;;;10.90;8.00;;;;;;;;;;10530699;28;20294;-71
2021/06/22 17:46:43;;;;;;;11.52;9.40;;;;;;;;;;10536724;28;20593;-68
2021/06/22 17:51:45;;;;;;;11.15;8.48;;;;;;;;;;10525042;28;20214;-71
2021/06/22 17:56:48;;;;;;;10.32;7.93;;;;;;;;;;10533181;28;20188;-72
2021/06/22 18:01:52;;;;;;;10.18;7.57;;;;;;;;;;10530542;28;20643;-70
2021/06/22 18:06:54;;;;;;;10.20;7.80;;;;;;;;;;10534334;28;20219;-71
2021/06/22 18:11:57;;;;;;;9.37;6.90;;;;;;;;;;10534661;28;20219;-71
2021/06/22 18:17:01;;;;;;;14.07;10.20;;;;;;;;;;10530708;28;20221;-71
2021/06/22 18:22:04;;;;;;;14.20;9.53;;;;;;;;;;10522869;28;20204;-71
2021/06/22 18:27:07;;;;;;;14.00;10.33;;;;;;;;;;10533671;28;20220;-71
2021/06/22 18:32:11;;;;;;;12.43;9.77;;;;;;;;;;10533119;28;20300;-71
2021/06/22 18:37:13;;;;;;;17.37;11.40;;;;;;;;;;10532951;28;20674;-69
2021/06/22 18:42:16;;;;;;;15.27;9.50;;;;;;;;;;10529273;28;20287;-70
2021/06/22 18:47:25;;;;;;;12.53;9.07;;;;;;;;;;10533886;28;20639;-70
2021/06/22 18:52:27;;;;;;;14.33;10.70;;;;;;;;;;10527916;28;20226;-71
2021/06/22 18:57:30;;;;;;;15.87;11.27;;;;;;;;;;10530777;28;20272;-71
2021/06/22 19:02:34;;;;;;;15.17;11.20;;;;;;;;;;10531207;28;20192;-71
2021/06/22 19:07:36;;;;;;;12.93;10.90;;;;;;;;;;10529522;28;20247;-71
2021/06/22 19:12:39;;;;;;;14.77;11.83;;;;;;;;;;10527028;28;20235;-71
2021/06/22 19:17:43;;;;;;;14.30;10.93;;;;;;;;;;10530846;28;20243;-70
2021/06/22 19:22:47;;;;;;;15.57;11.47;;;;;;;;;;10527032;28;20245;-71
2021/06/22 19:27:49;;;;;;;14.90;11.90;;;;;;;;;;10531095;28;20219;-68
2021/06/22 19:32:53;;;;;;;16.03;11.10;;;;;;;;;;10529277;28;20279;-71
2021/06/22 19:37:56;;;;;;;16.80;11.57;;;;;;;;;;10526868;28;20590;-71
2021/06/22 19:42:58;;;;;;;13.37;9.93;;;;;;;;;;10526083;28;20214;-69
2021/06/22 19:48:02;;;;;;;13.17;9.53;;;;;;;;;;10545284;28;20235;-69
2021/06/22 19:53:05;;;;;;;12.30;9.57;;;;;;;;;;10531001;28;20184;-69
2021/06/22 19:58:11;;;;;;;13.83;9.27;;;;;;;;;;10530001;28;20211;-69
2021/06/22 20:03:15;;;;;;;13.60;9.70;;;;;;;;;;10531218;28;20218;-69
2021/06/22 20:08:17;;;;;;;15.47;11.00;;;;;;;;;;10530537;28;20246;-69
2021/06/22 20:13:20;;;;;;;12.67;9.77;;;;;;;;;;10527782;28;20198;-68
2021/06/22 20:18:24;;;;;;;11.80;9.33;;;;;;;;;;10527004;28;20684;-68
2021/06/22 20:23:26;;;;;;;11.47;8.87;;;;;;;;;;10524624;28;20212;-69
2021/06/22 20:28:29;;;;;;;13.10;9.77;;;;;;;;;;10528550;28;20298;-68
2021/06/22 20:33:33;;;;;;;13.80;9.83;;;;;;;;;;10530692;28;20274;-69
2021/06/22 20:38:35;;;;;;;14.53;10.10;;;;;;;;;;10525739;28;20290;-69
2021/06/22 20:43:38;;;;;;;12.67;10.10;;;;;;;;;;10530301;28;20233;-68
2021/06/22 20:48:44;;;;;;;14.67;11.10;;;;;;;;;;10540459;28;20560;-68
2021/06/22 20:53:46;;;;;;;17.03;13.53;;;;;;;;;;10527452;28;20228;-69
2021/06/22 20:58:49;;;;;;;20.53;17.73;;;;;;;;;;10526991;28;20253;-68
2021/06/22 21:03:53;;;;;;;15.73;10.87;;;;;;;;;;10524584;28;20261;-69
2021/06/22 21:08:56;;;;;;;15.27;11.73;;;;;;;;;;10527849;28;20211;-67
2021/06/22 21:13:58;;;;;;;11.93;8.97;;;;;;;;;;10520589;28;20307;-69
2021/06/22 21:19:02;;;;;;;12.27;9.83;;;;;;;;;;10535981;28;20223;-70
2021/06/22 21:24:06;;;;;;;14.87;10.27;;;;;;;;;;10538927;28;20299;-68
2021/06/22 21:29:10;;;;;;;12.30;8.70;;;;;;;;;;10528179;28;20253;-69
2021/06/22 21:34:15;;;;;;;14.20;9.60;;;;;;;;;;10522030;28;20198;-70
2021/06/22 21:39:17;;;;;;;13.80;10.03;;;;;;;;;;10526861;28;20862;-71
2021/06/22 21:44:20;;;;;;;13.80;9.93;;;;;;;;;;10546160;28;20582;-70
2021/06/22 21:49:26;;;;;;;13.07;9.97;;;;;;;;;;10530068;28;20686;-67
2021/06/22 21:54:28;;;;;;;13.50;10.13;;;;;;;;;;10533534;28;20636;-68
2021/06/22 21:59:31;;;;;;;12.93;9.40;;;;;;;;;;10534950;28;20243;-69
2021/06/22 22:04:35;;;;;;;12.83;7.90;;;;;;;;;;10531317;28;20554;-68
2021/06/22 22:09:38;;;;;;;13.60;8.83;;;;;;;;;;10531698;28;20386;-73
2021/06/22 22:14:40;;;;;;;4.07;1.90;;;;;;;;;;10529536;28;20271;-71
2021/06/22 22:19:44;;;;;;;12.37;6.53;;;;;;;;;;10528576;28;20729;-72
2021/06/22 22:24:47;;;;;;;8.47;3.80;;;;;;;;;;10529791;28;20544;-70
2021/06/22 22:29:49;;;;;;;6.60;3.10;;;;;;;;;;10512986;28;20217;-72
2021/06/22 22:34:53;;;;;;;4.40;2.13;;;;;;;;;;10527116;28;20215;-71
2021/06/22 22:39:56;;;;;;;3.80;2.00;;;;;;;;;;10529765;28;20243;-69
2021/06/22 22:44:58;;;;;;;2.07;1.10;;;;;;;;;;10531920;28;20273;-72
2021/06/22 22:50:02;;;;;;;2.40;1.40;;;;;;;;;;10531153;28;20286;-71
2021/06/22 22:55:06;;;;;;;4.00;1.80;;;;;;;;;;10533097;28;20683;-69
2021/06/22 23:00:09;;;;;;;3.50;2.00;;;;;;;;;;10529450;28;20295;-71
2021/06/22 23:05:14;;;;;;;8.93;4.70;;;;;;;;;;10527615;28;20188;-69
2021/06/22 23:10:17;;;;;;;13.00;7.73;;;;;;;;;;10528664;28;20659;-72
2021/06/22 23:15:19;;;;;;;14.20;8.67;;;;;;;;;;10528997;28;20803;-72
2021/06/22 23:20:23;;;;;;;11.23;7.70;;;;;;;;;;10529058;28;20219;-70
2021/06/22 23:25:27;;;;;;;12.77;9.27;;;;;;;;;;10531952;28;20207;-74
2021/06/22 23:30:30;;;;;;;16.70;10.80;;;;;;;;;;10526446;28;20230;-71
2021/06/22 23:35:34;;;;;;;15.80;10.87;;;;;;;;;;10526676;28;20202;-71
2021/06/22 23:40:36;;;;;;;14.20;10.27;;;;;;;;;;10527007;28;20215;-70
2021/06/22 23:45:39;;;;;;;13.80;9.23;;;;;;;;;;10526623;28;20300;-71
2021/06/22 23:50:43;;;;;;;13.60;9.37;;;;;;;;;;10529337;28;20220;-70
2021/06/22 23:55:46;;;;;;;13.27;8.53;;;;;;;;;;10522890;28;20682;-72
